sensor_id;sensor_type;location;lat;lon;timestamp;P1;durP1;ratioP1;P2;durP2;ratioP2
24335;SDS011;33098;52.400;16.880;2023-04-25T00:01:14;1.60;;;1.40;;
24335;SDS011;33098;52.400;16.880;2023-04-25T00:03:41;1.60;;;1.50;;
24335;SDS011;33098;52.400;16.880;2023-04-25T00:06:09;4.40;;;1.50;;
24335;SDS011;33098;52.400;16.880;2023-04-25T00:08:44;3.70;;;1.40;;
24335;SDS011;33098;52.400;16.880;2023-04-25T00:11:11;1.90;;;1.30;;
24335;SDS011;33098;52.400;16.880;2023-04-25T00:13:38;1.60;;;1.30;;
24335;SDS011;33098;52.400;16.880;2023-04-25T00:16:08;1.70;;;1.30;;
24335;SDS011;33098;52.400;16.880;2023-04-25T00:18:38;2.50;;;1.30;;
24335;SDS011;33098;52.400;16.880;2023-04-25T00:21:14;2.50;;;1.20;;
24335;SDS011;33098;52.400;16.880;2023-04-25T00:23:44;1.20;;;1.10;;
24335;SDS011;33098;52.400;16.880;2023-04-25T00:26:18;3.30;;;1.20;;
24335;SDS011;33098;52.400;16.880;2023-04-25T00:28:46;1.20;;;1.10;;
24335;SDS011;33098;52.400;16.880;2023-04-25T00:31:17;2.20;;;1.40;;
24335;SDS011;33098;52.400;16.880;2023-04-25T00:33:45;2.30;;;1.40;;
24335;SDS011;33098;52.400;16.880;2023-04-25T00:36:12;1.10;;;1.10;;
24335;SDS011;33098;52.400;16.880;2023-04-25T00:38:40;1.50;;;1.20;;
24335;SDS011;33098;52.400;16.880;2023-04-25T00:41:08;1.30;;;1.20;;
24335;SDS011;33098;52.400;16.880;2023-04-25T00:43:36;1.30;;;1.20;;
24335;SDS011;33098;52.400;16.880;2023-04-25T00:46:04;1.00;;;1.00;;
24335;SDS011;33098;52.400;16.880;2023-04-25T00:48:31;2.60;;;1.00;;
24335;SDS011;33098;52.400;16.880;2023-04-25T00:51:01;1.70;;;1.20;;
24335;SDS011;33098;52.400;16.880;2023-04-25T00:53:29;1.20;;;1.10;;
24335;SDS011;33098;52.400;16.880;2023-04-25T00:56:02;1.40;;;1.20;;
24335;SDS011;33098;52.400;16.880;2023-04-25T00:58:29;1.20;;;1.10;;
24335;SDS011;33098;52.400;16.880;2023-04-25T01:00:56;1.20;;;1.10;;
24335;SDS011;33098;52.400;16.880;2023-04-25T01:03:24;2.60;;;1.00;;
24335;SDS011;33098;52.400;16.880;2023-04-25T01:05:54;2.30;;;1.10;;
24335;SDS011;33098;52.400;16.880;2023-04-25T01:08:24;1.20;;;1.10;;
24335;SDS011;33098;52.400;16.880;2023-04-25T01:10:54;1.50;;;1.00;;
24335;SDS011;33098;52.400;16.880;2023-04-25T01:13:25;1.50;;;1.20;;
24335;SDS011;33098;52.400;16.880;2023-04-25T01:15:54;1.20;;;1.10;;
24335;SDS011;33098;52.400;16.880;2023-04-25T01:18:22;1.10;;;1.00;;
24335;SDS011;33098;52.400;16.880;2023-04-25T01:20:52;2.10;;;1.50;;
24335;SDS011;33098;52.400;16.880;2023-04-25T01:23:21;3.70;;;1.40;;
24335;SDS011;33098;52.400;16.880;2023-04-25T01:25:49;3.40;;;1.70;;
24335;SDS011;33098;52.400;16.880;2023-04-25T01:28:19;2.40;;;1.90;;
24335;SDS011;33098;52.400;16.880;2023-04-25T01:30:47;3.40;;;1.90;;
24335;SDS011;33098;52.400;16.880;2023-04-25T01:33:14;2.00;;;1.60;;
24335;SDS011;33098;52.400;16.880;2023-04-25T01:35:42;1.60;;;1.40;;
24335;SDS011;33098;52.400;16.880;2023-04-25T01:38:09;3.20;;;1.60;;
24335;SDS011;33098;52.400;16.880;2023-04-25T01:40:41;2.80;;;2.00;;
24335;SDS011;33098;52.400;16.880;2023-04-25T01:43:09;3.20;;;1.80;;
24335;SDS011;33098;52.400;16.880;2023-04-25T01:45:38;2.50;;;2.00;;
24335;SDS011;33098;52.400;16.880;2023-04-25T01:48:10;4.00;;;1.80;;
24335;SDS011;33098;52.400;16.880;2023-04-25T01:50:41;3.20;;;1.70;;
24335;SDS011;33098;52.400;16.880;2023-04-25T01:53:10;3.40;;;1.90;;
24335;SDS011;33098;52.400;16.880;2023-04-25T01:55:39;1.80;;;1.70;;
24335;SDS011;33098;52.400;16.880;2023-04-25T01:58:11;4.50;;;1.80;;
24335;SDS011;33098;52.400;16.880;2023-04-25T02:00:59;1.80;;;1.50;;
24335;SDS011;33098;52.400;16.880;2023-04-25T02:03:27;3.20;;;1.60;;
24335;SDS011;33098;52.400;16.880;2023-04-25T02:05:54;2.90;;;1.60;;
24335;SDS011;33098;52.400;16.880;2023-04-25T02:08:22;2.70;;;1.80;;
24335;SDS011;33098;52.400;16.880;2023-04-25T02:10:50;3.20;;;1.40;;
24335;SDS011;33098;52.400;16.880;2023-04-25T02:13:21;3.20;;;1.80;;
24335;SDS011;33098;52.400;16.880;2023-04-25T02:16:15;2.10;;;1.60;;
24335;SDS011;33098;52.400;16.880;2023-04-25T02:18:46;2.50;;;1.70;;
24335;SDS011;33098;52.400;16.880;2023-04-25T02:21:15;3.20;;;2.00;;
24335;SDS011;33098;52.400;16.880;2023-04-25T02:26:15;3.20;;;1.80;;
24335;SDS011;33098;52.400;16.880;2023-04-25T02:28:53;2.50;;;1.70;;
24335;SDS011;33098;52.400;16.880;2023-04-25T02:31:20;2.70;;;1.60;;
24335;SDS011;33098;52.400;16.880;2023-04-25T02:33:50;2.00;;;1.50;;
24335;SDS011;33098;52.400;16.880;2023-04-25T02:36:20;2.40;;;1.50;;
24335;SDS011;33098;52.400;16.880;2023-04-25T02:38:50;3.80;;;1.70;;
24335;SDS011;33098;52.400;16.880;2023-04-25T02:43:48;2.20;;;1.40;;
24335;SDS011;33098;52.400;16.880;2023-04-25T02:46:14;2.80;;;1.60;;
24335;SDS011;33098;52.400;16.880;2023-04-25T02:48:46;1.70;;;1.60;;
24335;SDS011;33098;52.400;16.880;2023-04-25T02:51:16;3.20;;;1.80;;
24335;SDS011;33098;52.400;16.880;2023-04-25T02:53:44;3.10;;;1.80;;
24335;SDS011;33098;52.400;16.880;2023-04-25T02:56:11;2.40;;;1.70;;
24335;SDS011;33098;52.400;16.880;2023-04-25T02:58:38;2.90;;;1.60;;
24335;SDS011;33098;52.400;16.880;2023-04-25T03:01:06;4.10;;;1.90;;
24335;SDS011;33098;52.400;16.880;2023-04-25T03:03:32;4.70;;;1.90;;
24335;SDS011;33098;52.400;16.880;2023-04-25T03:05:59;2.00;;;1.70;;
24335;SDS011;33098;52.400;16.880;2023-04-25T03:08:29;2.40;;;2.00;;
24335;SDS011;33098;52.400;16.880;2023-04-25T03:10:59;2.20;;;2.00;;
24335;SDS011;33098;52.400;16.880;2023-04-25T03:13:27;3.00;;;2.10;;
24335;SDS011;33098;52.400;16.880;2023-04-25T03:16:02;2.60;;;2.10;;
24335;SDS011;33098;52.400;16.880;2023-04-25T03:18:31;3.80;;;2.40;;
24335;SDS011;33098;52.400;16.880;2023-04-25T03:20:58;3.80;;;2.20;;
24335;SDS011;33098;52.400;16.880;2023-04-25T03:23:25;2.70;;;2.30;;
24335;SDS011;33098;52.400;16.880;2023-04-25T03:25:54;5.20;;;2.70;;
24335;SDS011;33098;52.400;16.880;2023-04-25T03:28:23;4.00;;;2.60;;
24335;SDS011;33098;52.400;16.880;2023-04-25T03:30:51;4.20;;;3.00;;
24335;SDS011;33098;52.400;16.880;2023-04-25T03:33:17;4.10;;;3.00;;
24335;SDS011;33098;52.400;16.880;2023-04-25T03:35:50;3.40;;;2.60;;
24335;SDS011;33098;52.400;16.880;2023-04-25T03:38:17;5.90;;;2.70;;
24335;SDS011;33098;52.400;16.880;2023-04-25T03:40:47;3.60;;;3.00;;
24335;SDS011;33098;52.400;16.880;2023-04-25T03:43:19;3.00;;;2.70;;
24335;SDS011;33098;52.400;16.880;2023-04-25T03:45:56;5.10;;;3.00;;
24335;SDS011;33098;52.400;16.880;2023-04-25T03:48:23;6.40;;;2.90;;
24335;SDS011;33098;52.400;16.880;2023-04-25T03:50:57;4.10;;;2.70;;
24335;SDS011;33098;52.400;16.880;2023-04-25T03:53:24;4.40;;;2.80;;
24335;SDS011;33098;52.400;16.880;2023-04-25T03:56:22;5.10;;;3.10;;
24335;SDS011;33098;52.400;16.880;2023-04-25T03:58:57;6.60;;;2.70;;
24335;SDS011;33098;52.400;16.880;2023-04-25T04:01:25;3.70;;;2.50;;
24335;SDS011;33098;52.400;16.880;2023-04-25T04:03:52;4.20;;;2.80;;
24335;SDS011;33098;52.400;16.880;2023-04-25T04:06:25;4.10;;;2.70;;
24335;SDS011;33098;52.400;16.880;2023-04-25T04:08:58;4.70;;;2.90;;
24335;SDS011;33098;52.400;16.880;2023-04-25T04:11:31;3.50;;;2.70;;
24335;SDS011;33098;52.400;16.880;2023-04-25T04:13:58;4.70;;;2.40;;
24335;SDS011;33098;52.400;16.880;2023-04-25T04:16:26;8.00;;;3.20;;
24335;SDS011;33098;52.400;16.880;2023-04-25T04:18:56;4.40;;;3.20;;
24335;SDS011;33098;52.400;16.880;2023-04-25T04:21:24;4.40;;;3.40;;
24335;SDS011;33098;52.400;16.880;2023-04-25T04:23:51;4.30;;;3.20;;
24335;SDS011;33098;52.400;16.880;2023-04-25T04:26:21;4.90;;;3.40;;
24335;SDS011;33098;52.400;16.880;2023-04-25T04:29:02;5.10;;;3.40;;
24335;SDS011;33098;52.400;16.880;2023-04-25T04:31:51;9.60;;;3.70;;
24335;SDS011;33098;52.400;16.880;2023-04-25T04:34:18;5.90;;;3.90;;
24335;SDS011;33098;52.400;16.880;2023-04-25T04:36:45;5.40;;;3.90;;
24335;SDS011;33098;52.400;16.880;2023-04-25T04:39:13;6.40;;;3.60;;
24335;SDS011;33098;52.400;16.880;2023-04-25T04:42:19;5.60;;;3.90;;
24335;SDS011;33098;52.400;16.880;2023-04-25T04:45:29;5.80;;;3.90;;
24335;SDS011;33098;52.400;16.880;2023-04-25T04:48:11;6.30;;;3.70;;
24335;SDS011;33098;52.400;16.880;2023-04-25T04:51:05;5.10;;;3.60;;
24335;SDS011;33098;52.400;16.880;2023-04-25T04:53:54;5.60;;;3.40;;
24335;SDS011;33098;52.400;16.880;2023-04-25T04:56:43;4.10;;;3.20;;
24335;SDS011;33098;52.400;16.880;2023-04-25T04:59:30;4.40;;;3.20;;
24335;SDS011;33098;52.400;16.880;2023-04-25T05:02:26;3.50;;;3.10;;
24335;SDS011;33098;52.400;16.880;2023-04-25T05:05:11;7.50;;;3.50;;
24335;SDS011;33098;52.400;16.880;2023-04-25T05:07:58;3.90;;;3.30;;
24335;SDS011;33098;52.400;16.880;2023-04-25T05:10:40;5.30;;;3.30;;
24335;SDS011;33098;52.400;16.880;2023-04-25T05:13:19;6.20;;;3.30;;
24335;SDS011;33098;52.400;16.880;2023-04-25T05:16:03;4.80;;;3.10;;
24335;SDS011;33098;52.400;16.880;2023-04-25T05:18:59;5.30;;;3.50;;
24335;SDS011;33098;52.400;16.880;2023-04-25T05:21:41;8.10;;;4.40;;
24335;SDS011;33098;52.400;16.880;2023-04-25T05:24:39;4.60;;;3.40;;
24335;SDS011;33098;52.400;16.880;2023-04-25T05:27:31;5.60;;;3.30;;
24335;SDS011;33098;52.400;16.880;2023-04-25T05:30:16;7.70;;;3.20;;
24335;SDS011;33098;52.400;16.880;2023-04-25T05:32:59;5.90;;;3.40;;
24335;SDS011;33098;52.400;16.880;2023-04-25T05:35:27;4.10;;;3.00;;
24335;SDS011;33098;52.400;16.880;2023-04-25T05:37:57;4.40;;;3.10;;
24335;SDS011;33098;52.400;16.880;2023-04-25T05:40:41;4.80;;;2.80;;
24335;SDS011;33098;52.400;16.880;2023-04-25T05:43:16;4.70;;;3.10;;
24335;SDS011;33098;52.400;16.880;2023-04-25T05:45:49;3.80;;;3.00;;
24335;SDS011;33098;52.400;16.880;2023-04-25T05:51:20;7.10;;;3.00;;
24335;SDS011;33098;52.400;16.880;2023-04-25T05:54:06;4.70;;;2.80;;
24335;SDS011;33098;52.400;16.880;2023-04-25T05:56:37;3.50;;;2.60;;
24335;SDS011;33098;52.400;16.880;2023-04-25T05:59:06;6.00;;;3.00;;
24335;SDS011;33098;52.400;16.880;2023-04-25T06:01:34;8.10;;;4.20;;
24335;SDS011;33098;52.400;16.880;2023-04-25T06:04:01;5.50;;;3.30;;
24335;SDS011;33098;52.400;16.880;2023-04-25T06:06:34;3.90;;;2.70;;
24335;SDS011;33098;52.400;16.880;2023-04-25T06:09:01;5.50;;;3.20;;
24335;SDS011;33098;52.400;16.880;2023-04-25T06:11:33;5.50;;;2.70;;
24335;SDS011;33098;52.400;16.880;2023-04-25T06:14:01;6.50;;;3.10;;
24335;SDS011;33098;52.400;16.880;2023-04-25T06:16:32;4.30;;;3.10;;
24335;SDS011;33098;52.400;16.880;2023-04-25T06:18:59;5.00;;;2.90;;
24335;SDS011;33098;52.400;16.880;2023-04-25T06:21:27;4.30;;;2.80;;
24335;SDS011;33098;52.400;16.880;2023-04-25T06:23:56;5.50;;;3.20;;
24335;SDS011;33098;52.400;16.880;2023-04-25T06:26:23;5.40;;;3.00;;
24335;SDS011;33098;52.400;16.880;2023-04-25T06:28:53;6.20;;;2.60;;
24335;SDS011;33098;52.400;16.880;2023-04-25T06:31:20;5.70;;;3.30;;
24335;SDS011;33098;52.400;16.880;2023-04-25T06:33:49;7.00;;;3.30;;
24335;SDS011;33098;52.400;16.880;2023-04-25T06:36:16;6.70;;;3.50;;
24335;SDS011;33098;52.400;16.880;2023-04-25T06:38:43;6.70;;;2.90;;
24335;SDS011;33098;52.400;16.880;2023-04-25T06:41:11;4.60;;;2.60;;
24335;SDS011;33098;52.400;16.880;2023-04-25T06:43:38;12.00;;;3.00;;
24335;SDS011;33098;52.400;16.880;2023-04-25T06:46:32;4.80;;;2.60;;
24335;SDS011;33098;52.400;16.880;2023-04-25T06:49:01;7.70;;;3.00;;
24335;SDS011;33098;52.400;16.880;2023-04-25T06:51:31;4.70;;;2.90;;
24335;SDS011;33098;52.400;16.880;2023-04-25T06:54:02;5.90;;;2.80;;
24335;SDS011;33098;52.400;16.880;2023-04-25T06:56:38;5.80;;;3.00;;
24335;SDS011;33098;52.400;16.880;2023-04-25T06:59:12;6.20;;;2.90;;
24335;SDS011;33098;52.400;16.880;2023-04-25T07:01:49;6.10;;;3.30;;
24335;SDS011;33098;52.400;16.880;2023-04-25T07:04:19;6.00;;;3.00;;
24335;SDS011;33098;52.400;16.880;2023-04-25T07:06:50;7.20;;;3.30;;
24335;SDS011;33098;52.400;16.880;2023-04-25T07:09:25;6.50;;;3.30;;
24335;SDS011;33098;52.400;16.880;2023-04-25T07:11:52;6.00;;;3.30;;
24335;SDS011;33098;52.400;16.880;2023-04-25T07:14:21;4.90;;;3.20;;
24335;SDS011;33098;52.400;16.880;2023-04-25T07:16:48;4.90;;;3.10;;
24335;SDS011;33098;52.400;16.880;2023-04-25T07:19:21;8.40;;;3.40;;
24335;SDS011;33098;52.400;16.880;2023-04-25T07:21:50;9.10;;;2.90;;
24335;SDS011;33098;52.400;16.880;2023-04-25T07:24:17;4.90;;;2.70;;
24335;SDS011;33098;52.400;16.880;2023-04-25T07:26:46;7.00;;;3.10;;
24335;SDS011;33098;52.400;16.880;2023-04-25T07:29:27;5.50;;;3.10;;
24335;SDS011;33098;52.400;16.880;2023-04-25T07:31:54;6.90;;;3.30;;
24335;SDS011;33098;52.400;16.880;2023-04-25T07:34:23;6.60;;;3.00;;
24335;SDS011;33098;52.400;16.880;2023-04-25T07:36:50;4.80;;;2.90;;
24335;SDS011;33098;52.400;16.880;2023-04-25T07:39:17;5.80;;;3.40;;
24335;SDS011;33098;52.400;16.880;2023-04-25T07:41:44;7.50;;;3.50;;
24335;SDS011;33098;52.400;16.880;2023-04-25T07:44:15;5.50;;;3.20;;
24335;SDS011;33098;52.400;16.880;2023-04-25T07:46:42;5.60;;;3.10;;
24335;SDS011;33098;52.400;16.880;2023-04-25T07:49:09;8.40;;;3.40;;
24335;SDS011;33098;52.400;16.880;2023-04-25T07:51:44;7.60;;;3.70;;
24335;SDS011;33098;52.400;16.880;2023-04-25T07:54:13;5.10;;;2.90;;
24335;SDS011;33098;52.400;16.880;2023-04-25T07:56:47;5.40;;;2.90;;
24335;SDS011;33098;52.400;16.880;2023-04-25T07:59:15;7.60;;;3.10;;
24335;SDS011;33098;52.400;16.880;2023-04-25T08:01:43;6.40;;;2.80;;
24335;SDS011;33098;52.400;16.880;2023-04-25T08:04:13;6.60;;;3.00;;
24335;SDS011;33098;52.400;16.880;2023-04-25T08:06:53;5.50;;;4.00;;
24335;SDS011;33098;52.400;16.880;2023-04-25T08:09:24;4.80;;;2.80;;
24335;SDS011;33098;52.400;16.880;2023-04-25T08:11:52;6.00;;;3.20;;
24335;SDS011;33098;52.400;16.880;2023-04-25T08:14:23;5.40;;;3.10;;
24335;SDS011;33098;52.400;16.880;2023-04-25T08:16:50;5.00;;;3.70;;
24335;SDS011;33098;52.400;16.880;2023-04-25T08:19:20;4.80;;;3.20;;
24335;SDS011;33098;52.400;16.880;2023-04-25T08:21:47;5.20;;;2.80;;
24335;SDS011;33098;52.400;16.880;2023-04-25T08:24:17;4.60;;;3.00;;
24335;SDS011;33098;52.400;16.880;2023-04-25T08:26:44;5.40;;;3.00;;
24335;SDS011;33098;52.400;16.880;2023-04-25T08:31:44;4.50;;;3.00;;
24335;SDS011;33098;52.400;16.880;2023-04-25T08:34:14;5.00;;;3.20;;
24335;SDS011;33098;52.400;16.880;2023-04-25T08:36:45;4.60;;;2.80;;
24335;SDS011;33098;52.400;16.880;2023-04-25T08:39:38;6.10;;;3.20;;
24335;SDS011;33098;52.400;16.880;2023-04-25T08:42:15;5.40;;;3.00;;
24335;SDS011;33098;52.400;16.880;2023-04-25T08:44:42;5.70;;;3.20;;
24335;SDS011;33098;52.400;16.880;2023-04-25T08:47:11;5.60;;;2.90;;
24335;SDS011;33098;52.400;16.880;2023-04-25T08:49:45;7.30;;;3.40;;
24335;SDS011;33098;52.400;16.880;2023-04-25T08:52:17;6.40;;;3.20;;
24335;SDS011;33098;52.400;16.880;2023-04-25T08:54:55;5.40;;;2.60;;
24335;SDS011;33098;52.400;16.880;2023-04-25T08:57:24;5.10;;;2.60;;
24335;SDS011;33098;52.400;16.880;2023-04-25T08:59:51;6.10;;;3.30;;
24335;SDS011;33098;52.400;16.880;2023-04-25T09:02:22;5.80;;;3.20;;
24335;SDS011;33098;52.400;16.880;2023-04-25T09:04:54;4.50;;;3.20;;
24335;SDS011;33098;52.400;16.880;2023-04-25T09:09:55;5.30;;;3.30;;
24335;SDS011;33098;52.400;16.880;2023-04-25T09:12:37;4.00;;;3.10;;
24335;SDS011;33098;52.400;16.880;2023-04-25T09:15:09;5.00;;;3.00;;
24335;SDS011;33098;52.400;16.880;2023-04-25T09:17:59;5.30;;;3.50;;
24335;SDS011;33098;52.400;16.880;2023-04-25T09:20:43;5.50;;;3.30;;
24335;SDS011;33098;52.400;16.880;2023-04-25T09:23:13;5.20;;;3.20;;
24335;SDS011;33098;52.400;16.880;2023-04-25T09:25:44;6.00;;;3.20;;
24335;SDS011;33098;52.400;16.880;2023-04-25T09:28:14;6.10;;;3.90;;
24335;SDS011;33098;52.400;16.880;2023-04-25T09:30:41;6.60;;;3.10;;
24335;SDS011;33098;52.400;16.880;2023-04-25T09:33:17;2.60;;;2.40;;
24335;SDS011;33098;52.400;16.880;2023-04-25T09:35:49;4.40;;;2.70;;
24335;SDS011;33098;52.400;16.880;2023-04-25T09:38:43;4.30;;;2.90;;
24335;SDS011;33098;52.400;16.880;2023-04-25T09:41:24;4.40;;;2.40;;
24335;SDS011;33098;52.400;16.880;2023-04-25T09:43:56;3.80;;;2.50;;
24335;SDS011;33098;52.400;16.880;2023-04-25T09:46:34;3.40;;;2.40;;
24335;SDS011;33098;52.400;16.880;2023-04-25T09:49:06;4.30;;;2.40;;
24335;SDS011;33098;52.400;16.880;2023-04-25T09:51:38;3.50;;;2.50;;
24335;SDS011;33098;52.400;16.880;2023-04-25T09:54:06;4.80;;;2.40;;
24335;SDS011;33098;52.400;16.880;2023-04-25T09:56:41;4.30;;;2.50;;
24335;SDS011;33098;52.400;16.880;2023-04-25T09:59:10;5.40;;;2.60;;
24335;SDS011;33098;52.400;16.880;2023-04-25T10:01:41;4.60;;;2.60;;
24335;SDS011;33098;52.400;16.880;2023-04-25T10:04:13;4.60;;;2.60;;
24335;SDS011;33098;52.400;16.880;2023-04-25T10:06:51;4.00;;;2.60;;
24335;SDS011;33098;52.400;16.880;2023-04-25T10:09:25;3.80;;;2.60;;
24335;SDS011;33098;52.400;16.880;2023-04-25T10:11:54;5.60;;;3.00;;
24335;SDS011;33098;52.400;16.880;2023-04-25T10:14:22;5.00;;;3.00;;
24335;SDS011;33098;52.400;16.880;2023-04-25T10:16:50;4.30;;;2.80;;
24335;SDS011;33098;52.400;16.880;2023-04-25T10:19:20;4.70;;;2.60;;
24335;SDS011;33098;52.400;16.880;2023-04-25T10:21:50;4.30;;;2.60;;
24335;SDS011;33098;52.400;16.880;2023-04-25T10:24:37;3.90;;;2.90;;
24335;SDS011;33098;52.400;16.880;2023-04-25T10:27:05;5.10;;;2.50;;
24335;SDS011;33098;52.400;16.880;2023-04-25T10:29:33;6.10;;;2.60;;
24335;SDS011;33098;52.400;16.880;2023-04-25T10:32:01;4.30;;;2.70;;
24335;SDS011;33098;52.400;16.880;2023-04-25T10:34:42;3.30;;;2.40;;
24335;SDS011;33098;52.400;16.880;2023-04-25T10:37:19;3.80;;;2.20;;
24335;SDS011;33098;52.400;16.880;2023-04-25T10:39:45;3.70;;;2.30;;
24335;SDS011;33098;52.400;16.880;2023-04-25T10:42:14;4.60;;;2.40;;
24335;SDS011;33098;52.400;16.880;2023-04-25T10:44:41;3.80;;;2.20;;
24335;SDS011;33098;52.400;16.880;2023-04-25T10:47:34;3.30;;;2.10;;
24335;SDS011;33098;52.400;16.880;2023-04-25T10:50:06;5.00;;;2.60;;
24335;SDS011;33098;52.400;16.880;2023-04-25T10:52:40;3.30;;;2.40;;
24335;SDS011;33098;52.400;16.880;2023-04-25T10:55:10;3.50;;;2.30;;
24335;SDS011;33098;52.400;16.880;2023-04-25T10:57:40;3.60;;;2.50;;
24335;SDS011;33098;52.400;16.880;2023-04-25T11:00:10;3.90;;;2.30;;
24335;SDS011;33098;52.400;16.880;2023-04-25T11:08:00;4.60;;;2.30;;
24335;SDS011;33098;52.400;16.880;2023-04-25T11:10:39;5.10;;;2.70;;
24335;SDS011;33098;52.400;16.880;2023-04-25T11:13:13;4.00;;;2.80;;
24335;SDS011;33098;52.400;16.880;2023-04-25T11:15:40;4.00;;;2.60;;
24335;SDS011;33098;52.400;16.880;2023-04-25T11:18:10;7.10;;;2.30;;
24335;SDS011;33098;52.400;16.880;2023-04-25T11:20:42;4.50;;;2.60;;
24335;SDS011;33098;52.400;16.880;2023-04-25T11:23:09;3.00;;;2.10;;
24335;SDS011;33098;52.400;16.880;2023-04-25T11:25:37;2.90;;;2.10;;
24335;SDS011;33098;52.400;16.880;2023-04-25T11:28:04;2.50;;;2.10;;
24335;SDS011;33098;52.400;16.880;2023-04-25T11:30:34;2.90;;;2.40;;
24335;SDS011;33098;52.400;16.880;2023-04-25T11:33:01;3.70;;;2.20;;
24335;SDS011;33098;52.400;16.880;2023-04-25T11:35:29;3.70;;;2.80;;
24335;SDS011;33098;52.400;16.880;2023-04-25T11:37:57;3.70;;;2.50;;
24335;SDS011;33098;52.400;16.880;2023-04-25T11:40:23;5.40;;;2.50;;
24335;SDS011;33098;52.400;16.880;2023-04-25T11:43:00;3.70;;;2.30;;
24335;SDS011;33098;52.400;16.880;2023-04-25T11:45:27;3.40;;;2.30;;
24335;SDS011;33098;52.400;16.880;2023-04-25T11:47:59;4.10;;;2.30;;
24335;SDS011;33098;52.400;16.880;2023-04-25T11:50:28;5.30;;;2.40;;
24335;SDS011;33098;52.400;16.880;2023-04-25T11:52:56;5.30;;;2.60;;
24335;SDS011;33098;52.400;16.880;2023-04-25T11:55:23;3.10;;;2.40;;
24335;SDS011;33098;52.400;16.880;2023-04-25T11:57:54;3.90;;;2.50;;
24335;SDS011;33098;52.400;16.880;2023-04-25T12:00:21;4.90;;;2.40;;
24335;SDS011;33098;52.400;16.880;2023-04-25T12:02:53;4.50;;;2.00;;
24335;SDS011;33098;52.400;16.880;2023-04-25T12:05:23;4.50;;;2.50;;
24335;SDS011;33098;52.400;16.880;2023-04-25T12:07:54;4.20;;;2.20;;
24335;SDS011;33098;52.400;16.880;2023-04-25T12:10:23;3.00;;;2.00;;
24335;SDS011;33098;52.400;16.880;2023-04-25T12:12:53;2.60;;;1.60;;
24335;SDS011;33098;52.400;16.880;2023-04-25T12:15:24;2.10;;;1.70;;
24335;SDS011;33098;52.400;16.880;2023-04-25T12:17:52;4.20;;;1.80;;
24335;SDS011;33098;52.400;16.880;2023-04-25T12:20:24;3.40;;;1.80;;
24335;SDS011;33098;52.400;16.880;2023-04-25T12:22:59;3.90;;;2.10;;
24335;SDS011;33098;52.400;16.880;2023-04-25T12:25:36;3.30;;;1.80;;
24335;SDS011;33098;52.400;16.880;2023-04-25T12:28:20;3.90;;;2.50;;
24335;SDS011;33098;52.400;16.880;2023-04-25T12:33:24;3.50;;;2.30;;
24335;SDS011;33098;52.400;16.880;2023-04-25T12:35:53;5.30;;;2.30;;
24335;SDS011;33098;52.400;16.880;2023-04-25T12:38:21;2.90;;;2.20;;
24335;SDS011;33098;52.400;16.880;2023-04-25T12:40:54;4.90;;;2.40;;
24335;SDS011;33098;52.400;16.880;2023-04-25T12:43:24;5.60;;;2.30;;
24335;SDS011;33098;52.400;16.880;2023-04-25T12:45:54;3.00;;;2.30;;
24335;SDS011;33098;52.400;16.880;2023-04-25T12:48:22;3.20;;;2.00;;
24335;SDS011;33098;52.400;16.880;2023-04-25T12:50:52;3.30;;;2.00;;
24335;SDS011;33098;52.400;16.880;2023-04-25T12:53:19;2.40;;;2.10;;
24335;SDS011;33098;52.400;16.880;2023-04-25T12:55:47;3.00;;;2.10;;
24335;SDS011;33098;52.400;16.880;2023-04-25T12:58:21;3.70;;;2.00;;
24335;SDS011;33098;52.400;16.880;2023-04-25T13:00:47;5.00;;;2.10;;
24335;SDS011;33098;52.400;16.880;2023-04-25T13:03:16;3.30;;;2.00;;
24335;SDS011;33098;52.400;16.880;2023-04-25T13:05:44;4.10;;;1.90;;
24335;SDS011;33098;52.400;16.880;2023-04-25T13:08:10;5.50;;;2.10;;
24335;SDS011;33098;52.400;16.880;2023-04-25T13:10:40;2.30;;;1.80;;
24335;SDS011;33098;52.400;16.880;2023-04-25T13:13:08;6.30;;;2.40;;
24335;SDS011;33098;52.400;16.880;2023-04-25T13:15:34;3.10;;;1.50;;
24335;SDS011;33098;52.400;16.880;2023-04-25T13:18:02;2.00;;;1.70;;
24335;SDS011;33098;52.400;16.880;2023-04-25T13:20:30;3.20;;;1.80;;
24335;SDS011;33098;52.400;16.880;2023-04-25T13:22:57;3.30;;;1.80;;
24335;SDS011;33098;52.400;16.880;2023-04-25T13:25:27;1.40;;;1.10;;
24335;SDS011;33098;52.400;16.880;2023-04-25T13:27:54;1.10;;;1.00;;
24335;SDS011;33098;52.400;16.880;2023-04-25T13:30:23;0.80;;;0.80;;
24335;SDS011;33098;52.400;16.880;2023-04-25T13:32:53;0.90;;;0.80;;
24335;SDS011;33098;52.400;16.880;2023-04-25T13:35:27;1.30;;;0.90;;
24335;SDS011;33098;52.400;16.880;2023-04-25T13:37:56;1.50;;;1.10;;
24335;SDS011;33098;52.400;16.880;2023-04-25T13:40:29;1.50;;;1.00;;
24335;SDS011;33098;52.400;16.880;2023-04-25T13:43:05;1.60;;;1.30;;
24335;SDS011;33098;52.400;16.880;2023-04-25T13:45:33;1.90;;;1.70;;
24335;SDS011;33098;52.400;16.880;2023-04-25T13:48:00;2.00;;;1.80;;
24335;SDS011;33098;52.400;16.880;2023-04-25T13:50:30;3.60;;;2.20;;
24335;SDS011;33098;52.400;16.880;2023-04-25T13:53:00;3.60;;;2.40;;
24335;SDS011;33098;52.400;16.880;2023-04-25T13:55:26;2.60;;;2.30;;
24335;SDS011;33098;52.400;16.880;2023-04-25T13:57:54;5.20;;;2.30;;
24335;SDS011;33098;52.400;16.880;2023-04-25T14:00:21;3.30;;;2.30;;
24335;SDS011;33098;52.400;16.880;2023-04-25T14:02:54;2.80;;;2.20;;
24335;SDS011;33098;52.400;16.880;2023-04-25T14:05:23;3.50;;;2.60;;
24335;SDS011;33098;52.400;16.880;2023-04-25T14:07:53;3.70;;;2.70;;
24335;SDS011;33098;52.400;16.880;2023-04-25T14:10:25;3.70;;;2.60;;
24335;SDS011;33098;52.400;16.880;2023-04-25T14:12:55;3.10;;;2.50;;
24335;SDS011;33098;52.400;16.880;2023-04-25T14:15:27;4.30;;;2.80;;
24335;SDS011;33098;52.400;16.880;2023-04-25T14:18:06;4.00;;;2.80;;
24335;SDS011;33098;52.400;16.880;2023-04-25T14:20:37;5.20;;;3.00;;
24335;SDS011;33098;52.400;16.880;2023-04-25T14:23:05;5.30;;;3.20;;
24335;SDS011;33098;52.400;16.880;2023-04-25T14:25:37;6.00;;;2.40;;
24335;SDS011;33098;52.400;16.880;2023-04-25T14:28:10;2.30;;;2.10;;
24335;SDS011;33098;52.400;16.880;2023-04-25T14:30:37;2.60;;;2.00;;
24335;SDS011;33098;52.400;16.880;2023-04-25T14:33:04;2.90;;;2.00;;
24335;SDS011;33098;52.400;16.880;2023-04-25T14:35:33;3.70;;;2.10;;
24335;SDS011;33098;52.400;16.880;2023-04-25T14:38:00;2.60;;;1.70;;
24335;SDS011;33098;52.400;16.880;2023-04-25T14:40:30;3.80;;;1.60;;
24335;SDS011;33098;52.400;16.880;2023-04-25T14:42:58;2.70;;;1.70;;
24335;SDS011;33098;52.400;16.880;2023-04-25T14:45:25;3.10;;;1.70;;
24335;SDS011;33098;52.400;16.880;2023-04-25T14:47:58;3.20;;;2.00;;
24335;SDS011;33098;52.400;16.880;2023-04-25T14:50:29;2.90;;;1.50;;
24335;SDS011;33098;52.400;16.880;2023-04-25T14:52:56;3.50;;;1.70;;
24335;SDS011;33098;52.400;16.880;2023-04-25T14:55:30;5.10;;;1.70;;
24335;SDS011;33098;52.400;16.880;2023-04-25T14:57:58;4.80;;;1.70;;
24335;SDS011;33098;52.400;16.880;2023-04-25T15:00:28;3.60;;;1.60;;
24335;SDS011;33098;52.400;16.880;2023-04-25T15:03:03;5.50;;;1.60;;
24335;SDS011;33098;52.400;16.880;2023-04-25T15:05:31;2.50;;;1.60;;
24335;SDS011;33098;52.400;16.880;2023-04-25T15:08:04;4.20;;;1.60;;
24335;SDS011;33098;52.400;16.880;2023-04-25T15:10:34;3.00;;;1.50;;
24335;SDS011;33098;52.400;16.880;2023-04-25T15:13:01;4.20;;;1.60;;
24335;SDS011;33098;52.400;16.880;2023-04-25T15:15:28;4.20;;;2.00;;
24335;SDS011;33098;52.400;16.880;2023-04-25T15:18:01;4.80;;;1.90;;
24335;SDS011;33098;52.400;16.880;2023-04-25T15:20:29;3.10;;;1.80;;